sensor_id;sensor_type;location;lat;lon;timestamp;pressure;altitude;pressure_sealevel;temperature;humidity
62697;BME280;48761;42.680;23.312;2023-07-29T00:02:02;94686.03;;;23.13;47.94
62697;BME280;48761;42.680;23.312;2023-07-29T00:04:28;94689.94;;;23.10;47.94
62697;BME280;48761;42.680;23.312;2023-07-29T00:06:54;94697.50;;;23.15;47.61
62697;BME280;48761;42.680;23.312;2023-07-29T00:09:20;94693.06;;;22.92;48.46
62697;BME280;48761;42.680;23.312;2023-07-29T00:11:46;94697.25;;;22.94;48.29
62697;BME280;48761;42.680;23.312;2023-07-29T00:14:12;94693.91;;;22.62;48.21
62697;BME280;48761;42.680;23.312;2023-07-29T00:16:38;94686.16;;;22.74;48.00
62697;BME280;48761;42.680;23.312;2023-07-29T00:19:03;94699.69;;;22.89;47.87
62697;BME280;48761;42.680;23.312;2023-07-29T00:21:29;94693.63;;;22.87;48.04
62697;BME280;48761;42.680;23.312;2023-07-29T00:23:55;94682.97;;;22.70;47.81
62697;BME280;48761;42.680;23.312;2023-07-29T00:26:21;94687.84;;;22.90;47.56
62697;BME280;48761;42.680;23.312;2023-07-29T00:28:47;94690.25;;;23.00;47.44
62697;BME280;48761;42.680;23.312;2023-07-29T00:31:13;94683.25;;;22.76;48.25
62697;BME280;48761;42.680;23.312;2023-07-29T00:33:39;94679.44;;;22.85;47.61
62697;BME280;48761;42.680;23.312;2023-07-29T00:36:05;94687.66;;;22.92;47.67
62697;BME280;48761;42.680;23.312;2023-07-29T00:38:31;94687.53;;;23.00;47.04
62697;BME280;48761;42.680;23.312;2023-07-29T00:40:57;94687.84;;;22.90;47.40
62697;BME280;48761;42.680;23.312;2023-07-29T00:43:23;94675.91;;;22.69;48.09
62697;BME280;48761;42.680;23.312;2023-07-29T00:45:49;94678.88;;;22.75;48.07
62697;BME280;48761;42.680;23.312;2023-07-29T00:48:15;94662.63;;;22.44;47.39
62697;BME280;48761;42.680;23.312;2023-07-29T00:50:41;94683.94;;;22.78;47.40
62697;BME280;48761;42.680;23.312;2023-07-29T00:53:07;94679.88;;;22.13;48.70
62697;BME280;48761;42.680;23.312;2023-07-29T00:55:33;94683.06;;;22.32;48.44
62697;BME280;48761;42.680;23.312;2023-07-29T00:57:59;94663.25;;;22.16;49.17
62697;BME280;48761;42.680;23.312;2023-07-29T01:00:25;94664.44;;;21.36;50.37
62697;BME280;48761;42.680;23.312;2023-07-29T01:02:52;94678.13;;;21.34;50.98
62697;BME280;48761;42.680;23.312;2023-07-29T01:05:18;94672.75;;;21.97;49.40
62697;BME280;48761;42.680;23.312;2023-07-29T01:13:22;94670.53;;;22.31;48.78
62697;BME280;48761;42.680;23.312;2023-07-29T01:16:11;94678.47;;;21.78;49.64
62697;BME280;48761;42.680;23.312;2023-07-29T01:18:40;94669.41;;;22.10;48.79
62697;BME280;48761;42.680;23.312;2023-07-29T01:21:08;94667.91;;;22.22;49.06
62697;BME280;48761;42.680;23.312;2023-07-29T01:23:35;94672.81;;;22.42;48.66
62697;BME280;48761;42.680;23.312;2023-07-29T01:26:02;94674.47;;;22.43;48.79
62697;BME280;48761;42.680;23.312;2023-07-29T01:28:28;94668.88;;;22.30;48.75
62697;BME280;48761;42.680;23.312;2023-07-29T01:33:35;94680.38;;;22.32;49.05
62697;BME280;48761;42.680;23.312;2023-07-29T01:36:09;94673.63;;;22.27;49.11
62697;BME280;48761;42.680;23.312;2023-07-29T01:38:38;94675.22;;;22.22;49.30
62697;BME280;48761;42.680;23.312;2023-07-29T01:41:08;94676.72;;;22.24;49.20
62697;BME280;48761;42.680;23.312;2023-07-29T01:43:34;94658.31;;;22.20;49.00
62697;BME280;48761;42.680;23.312;2023-07-29T01:46:00;94660.91;;;22.13;48.96
62697;BME280;48761;42.680;23.312;2023-07-29T01:48:26;94675.38;;;22.20;49.46
62697;BME280;48761;42.680;23.312;2023-07-29T01:50:52;94668.31;;;22.19;49.74
62697;BME280;48761;42.680;23.312;2023-07-29T01:53:18;94674.44;;;22.13;49.86
62697;BME280;48761;42.680;23.312;2023-07-29T01:55:44;94672.03;;;22.18;49.53
62697;BME280;48761;42.680;23.312;2023-07-29T01:58:11;94664.28;;;22.15;49.53
62697;BME280;48761;42.680;23.312;2023-07-29T02:00:37;94673.34;;;22.22;49.51
62697;BME280;48761;42.680;23.312;2023-07-29T02:03:03;94655.97;;;22.01;49.65
62697;BME280;48761;42.680;23.312;2023-07-29T02:05:29;94653.91;;;22.03;49.86
62697;BME280;48761;42.680;23.312;2023-07-29T02:07:55;94657.28;;;22.05;50.17
62697;BME280;48761;42.680;23.312;2023-07-29T02:10:20;94683.13;;;22.08;50.11
62697;BME280;48761;42.680;23.312;2023-07-29T02:12:46;94665.75;;;22.02;50.44
62697;BME280;48761;42.680;23.312;2023-07-29T02:15:12;94662.47;;;21.92;49.97
62697;BME280;48761;42.680;23.312;2023-07-29T02:17:40;94672.47;;;21.68;50.96
62697;BME280;48761;42.680;23.312;2023-07-29T02:20:07;94682.63;;;21.66;51.33
62697;BME280;48761;42.680;23.312;2023-07-29T02:22:33;94689.06;;;21.88;50.68
62697;BME280;48761;42.680;23.312;2023-07-29T02:24:59;94677.31;;;21.96;50.79
62697;BME280;48761;42.680;23.312;2023-07-29T02:27:25;94687.94;;;21.74;51.45
62697;BME280;48761;42.680;23.312;2023-07-29T02:29:51;94685.03;;;21.60;51.51
62697;BME280;48761;42.680;23.312;2023-07-29T02:32:17;94684.75;;;20.51;53.68
62697;BME280;48761;42.680;23.312;2023-07-29T02:34:43;94676.91;;;20.24;54.70
62697;BME280;48761;42.680;23.312;2023-07-29T02:37:09;94680.59;;;21.21;52.70
62697;BME280;48761;42.680;23.312;2023-07-29T02:39:35;94687.41;;;21.08;52.79
62697;BME280;48761;42.680;23.312;2023-07-29T02:42:00;94659.28;;;20.45;54.03
62697;BME280;48761;42.680;23.312;2023-07-29T02:44:26;94681.25;;;20.42;54.72
62697;BME280;48761;42.680;23.312;2023-07-29T02:46:53;94661.59;;;20.16;54.60
62697;BME280;48761;42.680;23.312;2023-07-29T02:49:19;94681.97;;;20.02;55.44
62697;BME280;48761;42.680;23.312;2023-07-29T02:51:45;94674.91;;;19.85;55.95
62697;BME280;48761;42.680;23.312;2023-07-29T02:54:11;94683.56;;;20.54;53.88
62697;BME280;48761;42.680;23.312;2023-07-29T02:56:37;94682.44;;;20.80;53.26
62697;BME280;48761;42.680;23.312;2023-07-29T02:59:03;94687.19;;;20.12;55.62
62697;BME280;48761;42.680;23.312;2023-07-29T03:01:29;94682.81;;;20.03;55.54
62697;BME280;48761;42.680;23.312;2023-07-29T03:03:55;94692.97;;;19.84;56.11
62697;BME280;48761;42.680;23.312;2023-07-29T03:06:21;94676.25;;;20.22;55.36
62697;BME280;48761;42.680;23.312;2023-07-29T03:08:47;94698.31;;;20.83;53.88
62697;BME280;48761;42.680;23.312;2023-07-29T03:11:14;94685.09;;;20.88;53.46
62697;BME280;48761;42.680;23.312;2023-07-29T03:13:43;94689.94;;;21.10;53.08
62697;BME280;48761;42.680;23.312;2023-07-29T03:16:13;94705.03;;;21.27;53.13
62697;BME280;48761;42.680;23.312;2023-07-29T03:18:39;94710.19;;;21.37;52.64
62697;BME280;48761;42.680;23.312;2023-07-29T03:21:05;94701.78;;;21.56;52.20
62697;BME280;48761;42.680;23.312;2023-07-29T03:23:32;94701.91;;;21.39;52.65
62697;BME280;48761;42.680;23.312;2023-07-29T03:25:59;94704.66;;;21.31;52.87
62697;BME280;48761;42.680;23.312;2023-07-29T03:28:31;94701.59;;;21.57;52.88
62697;BME280;48761;42.680;23.312;2023-07-29T03:30:58;94706.47;;;22.09;51.64
62697;BME280;48761;42.680;23.312;2023-07-29T03:33:25;94700.25;;;22.39;50.80
62697;BME280;48761;42.680;23.312;2023-07-29T03:35:51;94701.25;;;22.53;50.34
62697;BME280;48761;42.680;23.312;2023-07-29T03:38:18;94695.19;;;22.66;49.98
62697;BME280;48761;42.680;23.312;2023-07-29T03:40:44;94705.31;;;22.57;49.54
62697;BME280;48761;42.680;23.312;2023-07-29T03:43:10;94704.63;;;21.63;51.73
62697;BME280;48761;42.680;23.312;2023-07-29T03:45:36;94707.06;;;22.80;49.77
62697;BME280;48761;42.680;23.312;2023-07-29T03:48:03;94700.53;;;23.05;48.79
62697;BME280;48761;42.680;23.312;2023-07-29T03:50:29;94703.22;;;23.05;48.69
62697;BME280;48761;42.680;23.312;2023-07-29T03:52:56;94705.09;;;22.59;48.90
62697;BME280;48761;42.680;23.312;2023-07-29T03:55:22;94699.56;;;21.59;51.65
62697;BME280;48761;42.680;23.312;2023-07-29T03:57:48;94697.25;;;21.24;52.16
62697;BME280;48761;42.680;23.312;2023-07-29T04:00:14;94684.25;;;21.28;52.36
62697;BME280;48761;42.680;23.312;2023-07-29T04:02:41;94701.31;;;21.99;51.23
62697;BME280;48761;42.680;23.312;2023-07-29T04:05:07;94700.66;;;22.12;50.39
62697;BME280;48761;42.680;23.312;2023-07-29T04:07:35;94708.69;;;22.05;50.44
62697;BME280;48761;42.680;23.312;2023-07-29T04:10:01;94716.22;;;21.95;50.02
62697;BME280;48761;42.680;23.312;2023-07-29T04:12:27;94719.06;;;22.02;50.20
62697;BME280;48761;42.680;23.312;2023-07-29T04:14:53;94719.88;;;22.71;48.69
62697;BME280;48761;42.680;23.312;2023-07-29T04:17:19;94714.22;;;22.27;48.94
62697;BME280;48761;42.680;23.312;2023-07-29T04:19:45;94695.31;;;21.65;50.33
62697;BME280;48761;42.680;23.312;2023-07-29T04:22:11;94709.16;;;21.62;50.37
62697;BME280;48761;42.680;23.312;2023-07-29T04:24:37;94703.34;;;21.50;50.89
62697;BME280;48761;42.680;23.312;2023-07-29T04:27:04;94704.88;;;22.15;49.38
62697;BME280;48761;42.680;23.312;2023-07-29T04:29:30;94701.56;;;22.73;48.09
62697;BME280;48761;42.680;23.312;2023-07-29T04:31:56;94708.81;;;22.27;48.82
62697;BME280;48761;42.680;23.312;2023-07-29T04:34:22;94716.50;;;23.00;47.18
62697;BME280;48761;42.680;23.312;2023-07-29T04:36:48;94725.69;;;23.51;46.02
62697;BME280;48761;42.680;23.312;2023-07-29T04:39:14;94727.44;;;23.81;45.29
62697;BME280;48761;42.680;23.312;2023-07-29T04:41:40;94718.00;;;24.56;44.15
62697;BME280;48761;42.680;23.312;2023-07-29T04:44:06;94720.44;;;25.15;43.03
62697;BME280;48761;42.680;23.312;2023-07-29T04:46:33;94713.81;;;25.38;42.65
62697;BME280;48761;42.680;23.312;2023-07-29T04:48:59;94712.72;;;25.89;41.91
62697;BME280;48761;42.680;23.312;2023-07-29T04:51:25;94720.03;;;26.36;40.89
62697;BME280;48761;42.680;23.312;2023-07-29T04:53:51;94723.59;;;26.29;40.40
62697;BME280;48761;42.680;23.312;2023-07-29T04:56:16;94728.22;;;26.36;40.59
62697;BME280;48761;42.680;23.312;2023-07-29T04:58:42;94732.41;;;26.59;39.94
62697;BME280;48761;42.680;23.312;2023-07-29T05:01:08;94729.06;;;26.43;39.99
62697;BME280;48761;42.680;23.312;2023-07-29T05:03:34;94723.59;;;26.29;40.25
62697;BME280;48761;42.680;23.312;2023-07-29T05:06:00;94728.97;;;25.68;41.33
62697;BME280;48761;42.680;23.312;2023-07-29T05:08:27;94742.84;;;25.80;40.96
62697;BME280;48761;42.680;23.312;2023-07-29T05:10:53;94740.38;;;26.26;40.42
62697;BME280;48761;42.680;23.312;2023-07-29T05:13:20;94744.59;;;26.49;39.57
62697;BME280;48761;42.680;23.312;2023-07-29T05:15:49;94746.66;;;26.61;39.75
62697;BME280;48761;42.680;23.312;2023-07-29T05:18:16;94747.13;;;27.38;38.95
62697;BME280;48761;42.680;23.312;2023-07-29T05:20:42;94739.22;;;27.16;38.77
62697;BME280;48761;42.680;23.312;2023-07-29T05:23:09;94742.44;;;26.65;39.53
62697;BME280;48761;42.680;23.312;2023-07-29T05:25:35;94755.44;;;26.36;40.36
62697;BME280;48761;42.680;23.312;2023-07-29T05:28:01;94748.16;;;25.46;41.71
62697;BME280;48761;42.680;23.312;2023-07-29T05:30:28;94741.91;;;25.52;41.92
62697;BME280;48761;42.680;23.312;2023-07-29T05:32:55;94736.00;;;27.33;38.56
62697;BME280;48761;42.680;23.312;2023-07-29T05:35:20;94755.69;;;28.20;37.22
62697;BME280;48761;42.680;23.312;2023-07-29T05:37:46;94757.63;;;28.13;37.28
62697;BME280;48761;42.680;23.312;2023-07-29T05:40:12;94759.47;;;27.40;37.77
62697;BME280;48761;42.680;23.312;2023-07-29T05:42:38;94757.34;;;27.49;38.40
62697;BME280;48761;42.680;23.312;2023-07-29T05:45:04;94756.28;;;26.70;39.16
62697;BME280;48761;42.680;23.312;2023-07-29T05:47:30;94752.88;;;25.73;40.92
62697;BME280;48761;42.680;23.312;2023-07-29T05:49:56;94754.13;;;27.13;38.45
62697;BME280;48761;42.680;23.312;2023-07-29T05:52:22;94754.63;;;27.89;37.31
62697;BME280;48761;42.680;23.312;2023-07-29T05:54:48;94754.69;;;27.75;37.53
62697;BME280;48761;42.680;23.312;2023-07-29T05:57:14;94742.41;;;27.98;37.10
62697;BME280;48761;42.680;23.312;2023-07-29T05:59:40;94758.59;;;28.76;35.85
62697;BME280;48761;42.680;23.312;2023-07-29T06:02:06;94748.44;;;29.03;35.94
62697;BME280;48761;42.680;23.312;2023-07-29T06:04:32;94739.91;;;28.73;36.04
62697;BME280;48761;42.680;23.312;2023-07-29T06:06:58;94763.41;;;28.56;36.18
62697;BME280;48761;42.680;23.312;2023-07-29T06:09:23;94764.69;;;27.95;36.77
62697;BME280;48761;42.680;23.312;2023-07-29T06:11:49;94758.06;;;27.70;36.66
62697;BME280;48761;42.680;23.312;2023-07-29T06:14:15;94740.41;;;28.38;36.13
62697;BME280;48761;42.680;23.312;2023-07-29T06:16:41;94748.88;;;28.81;35.19
62697;BME280;48761;42.680;23.312;2023-07-29T06:19:07;94747.56;;;29.28;34.71
62697;BME280;48761;42.680;23.312;2023-07-29T06:21:33;94736.75;;;29.52;34.58
62697;BME280;48761;42.680;23.312;2023-07-29T06:23:59;94748.97;;;30.42;33.63
62697;BME280;48761;42.680;23.312;2023-07-29T06:26:25;94740.75;;;30.54;32.87
62697;BME280;48761;42.680;23.312;2023-07-29T06:28:51;94739.72;;;30.12;33.24
62697;BME280;48761;42.680;23.312;2023-07-29T06:31:17;94737.84;;;29.63;34.33
62697;BME280;48761;42.680;23.312;2023-07-29T06:33:43;94736.56;;;28.20;36.60
62697;BME280;48761;42.680;23.312;2023-07-29T06:36:09;94740.09;;;30.28;33.92
62697;BME280;48761;42.680;23.312;2023-07-29T06:38:35;94733.97;;;30.81;33.09
62697;BME280;48761;42.680;23.312;2023-07-29T06:41:01;94716.38;;;30.21;33.70
62697;BME280;48761;42.680;23.312;2023-07-29T06:43:26;94724.94;;;29.51;34.49
62697;BME280;48761;42.680;23.312;2023-07-29T06:45:52;94716.41;;;29.29;34.82
62697;BME280;48761;42.680;23.312;2023-07-29T06:48:18;94722.63;;;29.36;34.95
62697;BME280;48761;42.680;23.312;2023-07-29T06:50:47;94718.50;;;28.45;36.17
62697;BME280;48761;42.680;23.312;2023-07-29T06:53:13;94719.41;;;27.80;37.41
62697;BME280;48761;42.680;23.312;2023-07-29T06:55:39;94730.50;;;28.18;37.29
62697;BME280;48761;42.680;23.312;2023-07-29T06:58:05;94719.13;;;29.29;35.03
62697;BME280;48761;42.680;23.312;2023-07-29T07:00:31;94727.88;;;27.19;38.63
62697;BME280;48761;42.680;23.312;2023-07-29T07:02:57;94735.22;;;27.64;38.07
62697;BME280;48761;42.680;23.312;2023-07-29T07:05:23;94728.94;;;28.99;35.82
62697;BME280;48761;42.680;23.312;2023-07-29T07:07:49;94717.41;;;30.08;34.10
62697;BME280;48761;42.680;23.312;2023-07-29T07:10:15;94717.03;;;30.36;33.95
62697;BME280;48761;42.680;23.312;2023-07-29T07:12:40;94717.91;;;30.05;33.23
62697;BME280;48761;42.680;23.312;2023-07-29T07:15:07;94729.31;;;30.33;33.37
62697;BME280;48761;42.680;23.312;2023-07-29T07:17:33;94709.31;;;30.14;33.19
62697;BME280;48761;42.680;23.312;2023-07-29T07:19:59;94725.38;;;30.41;33.13
62697;BME280;48761;42.680;23.312;2023-07-29T07:22:25;94724.88;;;30.44;32.88
62697;BME280;48761;42.680;23.312;2023-07-29T07:24:51;94718.56;;;30.80;32.47
62697;BME280;48761;42.680;23.312;2023-07-29T07:27:16;94707.16;;;31.07;32.37
62697;BME280;48761;42.680;23.312;2023-07-29T07:29:42;94716.81;;;30.73;32.42
62697;BME280;48761;42.680;23.312;2023-07-29T07:32:08;94716.38;;;29.48;34.48
62697;BME280;48761;42.680;23.312;2023-07-29T07:34:34;94704.25;;;28.87;35.68
62697;BME280;48761;42.680;23.312;2023-07-29T07:37:00;94713.97;;;29.20;35.78
62697;BME280;48761;42.680;23.312;2023-07-29T07:39:26;94703.63;;;29.04;35.19
62697;BME280;48761;42.680;23.312;2023-07-29T07:41:52;94697.75;;;28.37;36.57
62697;BME280;48761;42.680;23.312;2023-07-29T07:44:18;94709.75;;;28.36;36.67
62697;BME280;48761;42.680;23.312;2023-07-29T07:46:44;94707.72;;;29.82;34.58
62697;BME280;48761;42.680;23.312;2023-07-29T07:49:10;94703.72;;;28.52;35.91
62697;BME280;48761;42.680;23.312;2023-07-29T07:51:36;94711.41;;;28.37;37.00
62697;BME280;48761;42.680;23.312;2023-07-29T07:54:01;94693.47;;;29.11;35.89
62697;BME280;48761;42.680;23.312;2023-07-29T07:56:27;94697.41;;;29.65;35.21
62697;BME280;48761;42.680;23.312;2023-07-29T07:58:53;94720.66;;;30.17;34.19
62697;BME280;48761;42.680;23.312;2023-07-29T08:01:19;94708.44;;;29.58;34.68
62697;BME280;48761;42.680;23.312;2023-07-29T08:03:45;94711.69;;;30.53;33.76
62697;BME280;48761;42.680;23.312;2023-07-29T08:06:11;94714.88;;;31.10;32.59
62697;BME280;48761;42.680;23.312;2023-07-29T08:08:37;94707.88;;;29.00;35.08
62697;BME280;48761;42.680;23.312;2023-07-29T08:11:03;94708.38;;;27.94;36.60
62697;BME280;48761;42.680;23.312;2023-07-29T08:13:28;94722.22;;;27.99;36.91
62697;BME280;48761;42.680;23.312;2023-07-29T08:15:54;94726.34;;;29.04;35.53
62697;BME280;48761;42.680;23.312;2023-07-29T08:18:20;94721.41;;;28.94;35.60
62697;BME280;48761;42.680;23.312;2023-07-29T08:21:00;94722.72;;;28.15;36.99
62697;BME280;48761;42.680;23.312;2023-07-29T08:23:26;94716.00;;;29.06;34.62
62697;BME280;48761;42.680;23.312;2023-07-29T08:25:53;94720.03;;;29.04;35.42
62697;BME280;48761;42.680;23.312;2023-07-29T08:28:19;94706.09;;;29.43;34.41
62697;BME280;48761;42.680;23.312;2023-07-29T08:30:45;94706.63;;;31.10;32.93
62697;BME280;48761;42.680;23.312;2023-07-29T08:33:11;94715.63;;;30.93;32.57
62697;BME280;48761;42.680;23.312;2023-07-29T08:35:37;94701.03;;;31.05;31.74
62697;BME280;48761;42.680;23.312;2023-07-29T08:38:03;94718.59;;;31.57;31.28
62697;BME280;48761;42.680;23.312;2023-07-29T08:40:29;94709.31;;;32.57;30.40
62697;BME280;48761;42.680;23.312;2023-07-29T08:42:57;94709.88;;;31.07;31.06
62697;BME280;48761;42.680;23.312;2023-07-29T08:45:24;94712.25;;;29.57;33.12
62697;BME280;48761;42.680;23.312;2023-07-29T08:47:55;94706.06;;;30.72;31.43
62697;BME280;48761;42.680;23.312;2023-07-29T08:50:24;94708.19;;;31.59;29.89
62697;BME280;48761;42.680;23.312;2023-07-29T08:52:52;94698.19;;;30.75;31.13
62697;BME280;48761;42.680;23.312;2023-07-29T08:55:18;94693.44;;;31.07;29.81
62697;BME280;48761;42.680;23.312;2023-07-29T08:57:45;94690.22;;;31.51;29.41
62697;BME280;48761;42.680;23.312;2023-07-29T09:00:12;94701.00;;;32.17;29.06
62697;BME280;48761;42.680;23.312;2023-07-29T09:02:39;94704.19;;;31.96;29.34
62697;BME280;48761;42.680;23.312;2023-07-29T09:05:05;94678.16;;;30.39;30.95
62697;BME280;48761;42.680;23.312;2023-07-29T09:07:34;94679.41;;;29.57;31.88
62697;BME280;48761;42.680;23.312;2023-07-29T09:10:02;94680.81;;;29.48;31.58
62697;BME280;48761;42.680;23.312;2023-07-29T09:12:28;94683.41;;;29.05;31.90
62697;BME280;48761;42.680;23.312;2023-07-29T09:14:54;94678.34;;;29.08;31.60
62697;BME280;48761;42.680;23.312;2023-07-29T09:17:20;94683.25;;;28.81;32.42
62697;BME280;48761;42.680;23.312;2023-07-29T09:19:50;94667.75;;;29.31;32.61
62697;BME280;48761;42.680;23.312;2023-07-29T09:22:18;94671.34;;;30.17;31.80
62697;BME280;48761;42.680;23.312;2023-07-29T09:24:46;94650.31;;;29.75;31.12
62697;BME280;48761;42.680;23.312;2023-07-29T09:27:28;94655.31;;;30.45;29.83
62697;BME280;48761;42.680;23.312;2023-07-29T09:29:57;94653.41;;;29.79;30.32
62697;BME280;48761;42.680;23.312;2023-07-29T09:32:24;94666.03;;;29.80;31.06
62697;BME280;48761;42.680;23.312;2023-07-29T09:34:51;94659.59;;;30.41;30.80
62697;BME280;48761;42.680;23.312;2023-07-29T09:37:23;94664.22;;;30.52;30.06
62697;BME280;48761;42.680;23.312;2023-07-29T09:39:50;94655.53;;;30.56;30.30
62697;BME280;48761;42.680;23.312;2023-07-29T09:42:20;94639.22;;;30.49;28.93
62697;BME280;48761;42.680;23.312;2023-07-29T09:44:48;94655.84;;;30.11;29.71
62697;BME280;48761;42.680;23.312;2023-07-29T09:47:21;94657.38;;;29.83;29.83
62697;BME280;48761;42.680;23.312;2023-07-29T09:49:48;94637.63;;;30.17;29.97
62697;BME280;48761;42.680;23.312;2023-07-29T09:52:16;94638.94;;;30.74;29.11
62697;BME280;48761;42.680;23.312;2023-07-29T09:54:43;94646.56;;;30.24;29.30
62697;BME280;48761;42.680;23.312;2023-07-29T09:57:14;94607.91;;;29.04;30.53
62697;BME280;48761;42.680;23.312;2023-07-29T09:59:43;94641.41;;;29.49;29.62
62697;BME280;48761;42.680;23.312;2023-07-29T10:02:16;94642.38;;;29.85;29.37
62697;BME280;48761;42.680;23.312;2023-07-29T10:04:42;94632.78;;;30.43;28.73
62697;BME280;48761;42.680;23.312;2023-07-29T10:07:11;94634.06;;;30.64;28.02
62697;BME280;48761;42.680;23.312;2023-07-29T10:09:46;94643.00;;;30.84;27.47
62697;BME280;48761;42.680;23.312;2023-07-29T10:12:13;94633.53;;;31.04;27.80
62697;BME280;48761;42.680;23.312;2023-07-29T10:14:40;94618.41;;;31.01;27.78
62697;BME280;48761;42.680;23.312;2023-07-29T10:17:07;94634.75;;;31.66;27.59
62697;BME280;48761;42.680;23.312;2023-07-29T10:19:34;94623.59;;;31.91;26.99
62697;BME280;48761;42.680;23.312;2023-07-29T10:22:04;94624.59;;;31.84;26.66
62697;BME280;48761;42.680;23.312;2023-07-29T10:24:33;94601.97;;;31.60;27.15
62697;BME280;48761;42.680;23.312;2023-07-29T10:27:01;94608.63;;;31.98;26.34
62697;BME280;48761;42.680;23.312;2023-07-29T10:29:31;94609.72;;;31.80;26.41
62697;BME280;48761;42.680;23.312;2023-07-29T10:31:57;94601.31;;;31.87;27.15
62697;BME280;48761;42.680;23.312;2023-07-29T10:34:26;94601.09;;;31.01;27.83
62697;BME280;48761;42.680;23.312;2023-07-29T10:36:53;94593.41;;;31.44;27.17
62697;BME280;48761;42.680;23.312;2023-07-29T10:39:20;94602.19;;;31.58;27.09
62697;BME280;48761;42.680;23.312;2023-07-29T10:47:25;94596.09;;;30.97;27.96
62697;BME280;48761;42.680;23.312;2023-07-29T10:49:58;94588.22;;;31.30;27.24
62697;BME280;48761;42.680;23.312;2023-07-29T10:52:30;94588.19;;;31.13;26.86
62697;BME280;48761;42.680;23.312;2023-07-29T10:54:56;94582.97;;;30.99;27.45
62697;BME280;48761;42.680;23.312;2023-07-29T10:57:33;94558.47;;;31.39;27.32
62697;BME280;48761;42.680;23.312;2023-07-29T10:59:59;94574.66;;;30.94;27.44
62697;BME280;48761;42.680;23.312;2023-07-29T11:02:36;94578.09;;;30.90;27.43
62697;BME280;48761;42.680;23.312;2023-07-29T11:05:06;94567.94;;;30.90;27.11
62697;BME280;48761;42.680;23.312;2023-07-29T11:07:44;94571.75;;;31.30;26.40
62697;BME280;48761;42.680;23.312;2023-07-29T11:10:11;94578.47;;;31.52;26.43
62697;BME280;48761;42.680;23.312;2023-07-29T11:17:33;94560.13;;;31.40;26.32
62697;BME280;48761;42.680;23.312;2023-07-29T11:20:01;94563.03;;;31.51;26.27
62697;BME280;48761;42.680;23.312;2023-07-29T11:22:28;94561.84;;;31.76;26.21
62697;BME280;48761;42.680;23.312;2023-07-29T11:24:58;94560.94;;;31.70;26.00
62697;BME280;48761;42.680;23.312;2023-07-29T11:27:24;94551.31;;;31.38;25.88
62697;BME280;48761;42.680;23.312;2023-07-29T11:29:50;94544.94;;;31.20;26.52
62697;BME280;48761;42.680;23.312;2023-07-29T11:32:16;94560.41;;;31.56;25.61
62697;BME280;48761;42.680;23.312;2023-07-29T11:34:42;94535.69;;;31.91;25.56
62697;BME280;48761;42.680;23.312;2023-07-29T11:37:11;94550.59;;;31.95;25.42
62697;BME280;48761;42.680;23.312;2023-07-29T11:39:40;94549.03;;;31.18;26.15
62697;BME280;48761;42.680;23.312;2023-07-29T11:42:10;94542.66;;;31.00;25.58
62697;BME280;48761;42.680;23.312;2023-07-29T11:44:36;94539.78;;;31.07;25.71
62697;BME280;48761;42.680;23.312;2023-07-29T11:47:09;94541.56;;;31.48;25.47
62697;BME280;48761;42.680;23.312;2023-07-29T11:49:37;94547.59;;;31.15;25.42
62697;BME280;48761;42.680;23.312;2023-07-29T11:52:06;94543.13;;;31.09;25.99
62697;BME280;48761;42.680;23.312;2023-07-29T11:54:32;94531.72;;;30.88;25.42
62697;BME280;48761;42.680;23.312;2023-07-29T11:56:58;94538.41;;;31.21;25.80
62697;BME280;48761;42.680;23.312;2023-07-29T11:59:24;94536.13;;;31.18;26.02
62697;BME280;48761;42.680;23.312;2023-07-29T12:01:50;94532.75;;;31.46;26.08
62697;BME280;48761;42.680;23.312;2023-07-29T12:04:16;94517.78;;;31.36;25.77
62697;BME280;48761;42.680;23.312;2023-07-29T12:06:42;94505.25;;;31.92;25.52
62697;BME280;48761;42.680;23.312;2023-07-29T12:09:08;94524.59;;;31.16;26.13
62697;BME280;48761;42.680;23.312;2023-07-29T12:11:34;94517.75;;;31.02;26.17
62697;BME280;48761;42.680;23.312;2023-07-29T12:14:01;94519.16;;;31.04;26.70
62697;BME280;48761;42.680;23.312;2023-07-29T12:16:26;94513.09;;;30.90;26.64
62697;BME280;48761;42.680;23.312;2023-07-29T12:18:52;94502.38;;;31.35;26.23
62697;BME280;48761;42.680;23.312;2023-07-29T12:21:19;94508.91;;;31.98;25.05
62697;BME280;48761;42.680;23.312;2023-07-29T12:23:45;94505.06;;;31.99;25.09
62697;BME280;48761;42.680;23.312;2023-07-29T12:26:11;94492.13;;;31.77;24.73
62697;BME280;48761;42.680;23.312;2023-07-29T12:28:36;94508.22;;;31.91;25.12
62697;BME280;48761;42.680;23.312;2023-07-29T12:31:07;94509.78;;;32.04;24.50
62697;BME280;48761;42.680;23.312;2023-07-29T12:33:35;94499.97;;;31.91;24.87
62697;BME280;48761;42.680;23.312;2023-07-29T12:36:02;94494.38;;;32.20;24.06
62697;BME280;48761;42.680;23.312;2023-07-29T12:38:29;94510.75;;;32.54;23.53
62697;BME280;48761;42.680;23.312;2023-07-29T12:40:55;94502.63;;;32.65;22.99
62697;BME280;48761;42.680;23.312;2023-07-29T12:43:21;94491.84;;;32.36;23.54
62697;BME280;48761;42.680;23.312;2023-07-29T12:45:50;94495.44;;;31.79;24.39
62697;BME280;48761;42.680;23.312;2023-07-29T12:48:16;94481.44;;;31.98;23.85
62697;BME280;48761;42.680;23.312;2023-07-29T12:50:42;94504.34;;;32.26;23.79
62697;BME280;48761;42.680;23.312;2023-07-29T12:53:09;94496.44;;;32.52;23.48
62697;BME280;48761;42.680;23.312;2023-07-29T12:55:35;94502.06;;;32.40;23.23
62697;BME280;48761;42.680;23.312;2023-07-29T12:58:01;94499.41;;;32.68;23.27
62697;BME280;48761;42.680;23.312;2023-07-29T13:00:27;94489.41;;;32.62;22.79
62697;BME280;48761;42.680;23.312;2023-07-29T13:02:53;94495.28;;;32.93;23.04
62697;BME280;48761;42.680;23.312;2023-07-29T13:05:20;94496.47;;;33.03;22.71
62697;BME280;48761;42.680;23.312;2023-07-29T13:07:46;94485.94;;;31.87;23.93